createdAt,value
2023-05-25T00:00:19.003Z,94.10
2023-05-25T00:02:48.744Z,94.40
2023-05-25T00:05:18.190Z,94.40
2023-05-25T00:07:47.315Z,94.50
2023-05-25T00:10:14.081Z,94.70
2023-05-25T00:12:40.945Z,94.60
2023-05-25T00:15:08.585Z,94.50
2023-05-25T00:17:37.292Z,94.40
2023-05-25T00:20:07.862Z,94.20
2023-05-25T00:22:38.520Z,94.30
2023-05-25T00:25:06.473Z,94.30
2023-05-25T00:27:33.292Z,94.40
2023-05-25T00:30:00.171Z,94.30
2023-05-25T00:32:27.091Z,94.40
2023-05-25T00:34:55.157Z,94.50
2023-05-25T00:37:22.238Z,94.50
2023-05-25T00:39:49.071Z,94.70
2023-05-25T00:42:16.356Z,94.70
2023-05-25T00:44:43.248Z,94.60
2023-05-25T00:47:11.797Z,94.50
2023-05-25T00:49:38.784Z,94.40
2023-05-25T00:52:06.470Z,94.40
2023-05-25T00:54:35.124Z,94.50
2023-05-25T00:57:04.495Z,94.40
2023-05-25T00:59:48.326Z,94.50
2023-05-25T01:02:17.496Z,94.50
2023-05-25T01:04:59.656Z,94.80
2023-05-25T01:07:28.343Z,95.00
2023-05-25T01:10:02.155Z,95.30
2023-05-25T01:12:38.434Z,95.20
2023-05-25T01:15:06.358Z,95.40
2023-05-25T01:17:37.881Z,95.70
2023-05-25T01:20:11.088Z,96.00
2023-05-25T01:22:55.411Z,96.40
2023-05-25T01:25:40.124Z,96.50
2023-05-25T01:28:16.881Z,96.60
2023-05-25T01:30:48.338Z,96.80
2023-05-25T01:33:18.437Z,97.10
2023-05-25T01:35:47.081Z,97.20
2023-05-25T01:38:14.626Z,97.10
2023-05-25T01:40:41.446Z,97.40
2023-05-25T01:43:08.191Z,97.70
2023-05-25T01:45:36.598Z,97.90
2023-05-25T01:48:23.884Z,98.20
2023-05-25T01:51:10.967Z,98.40
2023-05-25T01:53:45.422Z,98.40
2023-05-25T01:56:14.618Z,98.40
2023-05-25T01:58:48.194Z,98.80
2023-05-25T02:01:17.375Z,99.30
2023-05-25T02:03:48.729Z,99.50
2023-05-25T02:06:16.699Z,99.80
2023-05-25T02:08:46.428Z,99.90
2023-05-25T02:11:16.762Z,99.90
2023-05-25T02:13:43.572Z,99.90
2023-05-25T02:16:10.443Z,99.90
2023-05-25T02:18:37.386Z,99.90
2023-05-25T02:21:04.209Z,99.90
2023-05-25T02:23:31.168Z,99.90
2023-05-25T02:25:58.004Z,99.90
2023-05-25T02:28:25.009Z,99.90
2023-05-25T02:30:51.836Z,99.90
2023-05-25T02:33:18.871Z,99.90
2023-05-25T02:35:46.130Z,99.90
2023-05-25T02:38:16.397Z,99.90
2023-05-25T02:40:45.560Z,99.90
2023-05-25T02:43:12.335Z,99.90
2023-05-25T02:45:39.111Z,99.90
2023-05-25T02:48:06.281Z,99.90
2023-05-25T02:50:33.087Z,99.90
2023-05-25T02:52:59.847Z,99.90
2023-05-25T02:55:26.593Z,99.90
2023-05-25T02:57:53.435Z,99.90
2023-05-25T03:00:20.736Z,99.90
2023-05-25T03:02:48.862Z,99.90
2023-05-25T03:05:16.577Z,99.90
2023-05-25T03:07:43.529Z,99.90
2023-05-25T03:10:11.724Z,99.90
2023-05-25T03:12:38.501Z,99.90
2023-05-25T03:15:06.055Z,99.90
2023-05-25T03:17:32.922Z,99.90
2023-05-25T03:19:59.696Z,99.90
2023-05-25T03:22:27.074Z,99.90
2023-05-25T03:24:53.836Z,99.90
2023-05-25T03:27:20.610Z,99.90
2023-05-25T03:29:50.267Z,99.90
2023-05-25T03:32:17.322Z,99.90
2023-05-25T03:34:44.851Z,99.90
2023-05-25T03:37:11.827Z,99.90
2023-05-25T03:39:38.661Z,99.90
2023-05-25T03:42:06.348Z,99.90
2023-05-25T03:44:33.217Z,99.90
2023-05-25T03:46:59.984Z,99.90
2023-05-25T03:49:27.968Z,99.90
2023-05-25T03:51:54.887Z,99.90
2023-05-25T03:54:21.687Z,99.90
2023-05-25T03:56:48.493Z,99.90
2023-05-25T03:59:15.546Z,99.90
2023-05-25T04:01:42.313Z,99.90
2023-05-25T04:04:09.204Z,99.90
2023-05-25T04:06:40.086Z,99.90
2023-05-25T04:09:07.092Z,99.90
2023-05-25T04:11:33.914Z,99.90
2023-05-25T04:14:00.698Z,99.90
2023-05-25T04:16:27.650Z,99.90
2023-05-25T04:18:54.508Z,99.90
2023-05-25T04:21:21.464Z,99.90
2023-05-25T04:23:48.292Z,99.90
2023-05-25T04:26:16.396Z,99.90
2023-05-25T04:28:43.162Z,99.90
2023-05-25T04:31:10.190Z,99.90
2023-05-25T04:33:38.662Z,99.90
2023-05-25T04:36:06.366Z,99.90
2023-05-25T04:38:33.267Z,99.90
2023-05-25T04:41:03.016Z,99.90
2023-05-25T04:43:30.113Z,99.90
2023-05-25T04:45:57.902Z,99.90
2023-05-25T04:48:24.837Z,99.90
2023-05-25T04:50:52.958Z,99.90
2023-05-25T04:53:20.378Z,99.90
2023-05-25T04:55:47.358Z,99.90
2023-05-25T04:58:14.938Z,99.90
2023-05-25T05:00:41.990Z,99.90
2023-05-25T05:03:09.040Z,99.90
2023-05-25T05:05:36.894Z,99.90
2023-05-25T05:08:03.728Z,99.90
2023-05-25T05:10:30.632Z,99.90
2023-05-25T05:12:57.392Z,99.90
2023-05-25T05:15:24.254Z,99.90
2023-05-25T05:17:51.133Z,99.90
2023-05-25T05:20:18.098Z,99.90
2023-05-25T05:22:45.579Z,99.90
2023-05-25T05:25:12.358Z,99.90
2023-05-25T05:27:39.220Z,99.90
2023-05-25T05:30:07.530Z,99.90
2023-05-25T05:32:34.380Z,99.90
2023-05-25T05:35:01.377Z,99.90
2023-05-25T05:37:28.168Z,99.90
2023-05-25T05:39:54.952Z,99.90
2023-05-25T05:42:21.722Z,99.50
2023-05-25T05:44:48.603Z,99.30
2023-05-25T05:47:15.452Z,99.20
2023-05-25T05:49:42.205Z,99.10
2023-05-25T05:52:10.154Z,98.90
2023-05-25T05:54:36.938Z,99.00
2023-05-25T05:57:03.981Z,98.60
2023-05-25T05:59:30.776Z,98.40
2023-05-25T06:01:57.582Z,98.00
2023-05-25T06:04:28.427Z,97.90
2023-05-25T06:06:55.552Z,97.80
2023-05-25T06:09:22.404Z,97.20
2023-05-25T06:11:49.177Z,97.00
2023-05-25T06:14:15.987Z,96.90
2023-05-25T06:16:43.704Z,96.90
2023-05-25T06:19:11.010Z,97.10
2023-05-25T06:21:37.805Z,97.00
2023-05-25T06:24:05.486Z,96.20
2023-05-25T06:26:32.272Z,95.40
2023-05-25T06:28:59.124Z,95.20
2023-05-25T06:31:26.326Z,94.70
2023-05-25T06:33:53.191Z,94.40
2023-05-25T06:36:19.978Z,94.50
2023-05-25T06:38:47.196Z,95.00
2023-05-25T06:41:15.251Z,94.50
2023-05-25T06:43:45.240Z,94.10
2023-05-25T06:46:17.791Z,94.40
2023-05-25T06:48:45.560Z,94.00
2023-05-25T06:51:12.402Z,94.00
2023-05-25T06:53:39.884Z,94.10
2023-05-25T06:56:06.903Z,93.40
2023-05-25T06:58:33.699Z,92.90
2023-05-25T07:01:01.068Z,91.90
2023-05-25T07:03:27.993Z,91.50
2023-05-25T07:05:55.260Z,90.50
2023-05-25T07:08:22.022Z,89.10
2023-05-25T07:10:50.163Z,87.60
2023-05-25T07:13:17.346Z,84.60
2023-05-25T07:15:44.532Z,84.30
2023-05-25T07:18:12.368Z,81.60
2023-05-25T07:20:42.191Z,79.70
2023-05-25T07:23:12.864Z,80.60
2023-05-25T07:25:41.372Z,76.70
2023-05-25T07:28:08.762Z,76.30
2023-05-25T07:30:36.309Z,75.20
2023-05-25T07:33:03.127Z,75.60
2023-05-25T07:35:30.045Z,75.00
2023-05-25T07:38:02.465Z,72.00
2023-05-25T07:40:29.252Z,70.80
2023-05-25T07:42:56.520Z,70.20
2023-05-25T07:45:23.286Z,69.60
2023-05-25T07:47:50.168Z,69.40
2023-05-25T07:50:17.369Z,70.70
2023-05-25T07:52:44.630Z,71.00
2023-05-25T07:55:11.612Z,69.00
2023-05-25T07:57:38.406Z,68.00
2023-05-25T08:00:07.914Z,67.10
2023-05-25T08:02:34.771Z,68.00
2023-05-25T08:05:05.431Z,67.50
2023-05-25T08:07:35.741Z,66.90
2023-05-25T08:10:03.488Z,66.10
2023-05-25T08:12:46.976Z,65.70
2023-05-25T08:15:15.492Z,65.00
2023-05-25T08:17:42.508Z,66.00
2023-05-25T08:20:10.359Z,66.40
2023-05-25T08:22:37.380Z,65.80
2023-05-25T08:25:05.300Z,63.20
2023-05-25T08:27:35.109Z,61.80
2023-05-25T08:30:06.350Z,61.60
2023-05-25T08:32:33.254Z,61.40
2023-05-25T08:35:01.632Z,61.60
2023-05-25T08:37:35.552Z,60.60
2023-05-25T08:40:03.032Z,60.30
2023-05-25T08:42:30.386Z,60.30
2023-05-25T08:44:57.236Z,60.70
2023-05-25T08:47:25.219Z,61.70
2023-05-25T08:49:55.158Z,61.40
2023-05-25T08:52:26.398Z,61.40
2023-05-25T08:54:57.933Z,59.50
2023-05-25T08:57:49.114Z,58.40
2023-05-25T09:00:20.644Z,58.90
2023-05-25T09:03:09.359Z,58.10
2023-05-25T09:05:42.046Z,58.10
2023-05-25T09:08:10.277Z,59.30
2023-05-25T09:10:38.780Z,58.20
2023-05-25T09:13:20.497Z,56.90
2023-05-25T09:15:49.296Z,57.60
2023-05-25T09:18:16.256Z,57.40
2023-05-25T09:20:46.218Z,57.10
2023-05-25T09:23:15.462Z,56.40
2023-05-25T09:25:42.594Z,56.50
2023-05-25T09:28:25.409Z,56.10
2023-05-25T09:30:53.908Z,56.90
2023-05-25T09:33:21.348Z,56.20
2023-05-25T09:35:49.024Z,55.30
2023-05-25T09:38:17.272Z,55.90
2023-05-25T09:40:45.259Z,54.80
2023-05-25T09:43:21.917Z,54.80
2023-05-25T09:45:54.980Z,55.10
2023-05-25T09:48:25.446Z,55.10
2023-05-25T09:50:52.788Z,56.30
2023-05-25T09:53:21.062Z,53.70
2023-05-25T09:55:53.133Z,54.20
2023-05-25T09:58:24.916Z,52.10
2023-05-25T10:00:55.010Z,53.30
2023-05-25T10:03:22.010Z,53.30
2023-05-25T10:05:49.630Z,54.00
2023-05-25T10:08:27.180Z,53.40
2023-05-25T10:10:55.924Z,53.20
2023-05-25T10:13:23.235Z,52.70
2023-05-25T10:15:53.574Z,52.30
2023-05-25T10:18:27.301Z,51.90
2023-05-25T10:21:03.131Z,51.80
2023-05-25T10:23:47.371Z,52.90
2023-05-25T10:26:20.114Z,52.70
2023-05-25T10:28:51.833Z,52.10
2023-05-25T10:31:19.595Z,50.90
2023-05-25T10:33:50.618Z,52.50
2023-05-25T10:36:21.278Z,52.30
2023-05-25T10:38:54.228Z,53.40
2023-05-25T10:41:21.599Z,51.20
2023-05-25T10:43:49.284Z,51.60
2023-05-25T10:46:17.101Z,52.40
2023-05-25T10:48:49.458Z,51.20
2023-05-25T10:51:20.528Z,50.80
2023-05-25T10:53:59.678Z,50.40
2023-05-25T10:56:26.488Z,50.40
2023-05-25T10:58:53.578Z,50.30
2023-05-25T11:01:20.617Z,50.00
2023-05-25T11:03:48.209Z,49.00
2023-05-25T11:06:17.736Z,49.90
2023-05-25T11:08:55.611Z,50.00
2023-05-25T11:11:42.935Z,50.00
2023-05-25T11:14:28.174Z,49.70
2023-05-25T11:17:22.069Z,48.80
2023-05-25T11:19:51.995Z,47.90
2023-05-25T11:22:31.583Z,48.80
2023-05-25T11:25:23.310Z,48.30
2023-05-25T11:27:54.175Z,47.50
2023-05-25T11:30:27.735Z,46.50
2023-05-25T11:32:54.897Z,47.00
2023-05-25T11:35:21.904Z,47.10
2023-05-25T11:37:53.572Z,46.60
2023-05-25T11:40:23.180Z,47.10
2023-05-25T11:42:52.704Z,47.00
2023-05-25T11:45:23.104Z,46.10
2023-05-25T11:47:49.946Z,46.30
2023-05-25T11:50:17.295Z,46.70
2023-05-25T11:52:44.070Z,47.20
2023-05-25T11:55:14.955Z,45.80
2023-05-25T11:57:44.063Z,45.90
2023-05-25T12:00:12.089Z,46.50
2023-05-25T12:02:43.518Z,46.20
2023-05-25T12:05:11.715Z,43.40
2023-05-25T12:07:46.517Z,43.90
2023-05-25T12:10:16.453Z,43.20
2023-05-25T12:12:45.109Z,44.80
2023-05-25T12:15:15.919Z,46.60
2023-05-25T12:17:45.572Z,46.20
2023-05-25T12:20:15.294Z,44.10
2023-05-25T12:22:43.549Z,43.60
2023-05-25T12:25:12.428Z,44.90
2023-05-25T12:27:40.636Z,44.40
2023-05-25T12:30:11.690Z,42.60
2023-05-25T12:33:02.006Z,43.80
2023-05-25T12:35:44.089Z,42.60
2023-05-25T12:38:17.480Z,42.80
2023-05-25T12:40:45.266Z,41.60
2023-05-25T12:43:13.346Z,41.30
2023-05-25T12:45:43.866Z,40.80
2023-05-25T12:48:11.880Z,41.80
2023-05-25T12:50:38.839Z,41.90
2023-05-25T12:53:06.307Z,42.40
2023-05-25T12:55:36.174Z,41.70
2023-05-25T12:58:06.189Z,41.70
2023-05-25T13:00:38.353Z,40.40
2023-05-25T13:03:09.574Z,40.90
2023-05-25T13:05:38.382Z,40.00
2023-05-25T13:08:08.773Z,41.10
2023-05-25T13:10:38.096Z,41.00
2023-05-25T13:13:05.035Z,39.10
2023-05-25T13:15:31.942Z,39.00
2023-05-25T13:17:59.060Z,39.50
2023-05-25T13:20:30.069Z,39.20
2023-05-25T13:22:57.270Z,40.00
2023-05-25T13:25:26.899Z,40.20
2023-05-25T13:27:54.841Z,39.60
2023-05-25T13:30:22.183Z,39.90
2023-05-25T13:32:51.778Z,39.00
2023-05-25T13:35:24.027Z,39.70
2023-05-25T13:37:51.057Z,40.10
2023-05-25T13:40:18.213Z,38.70
2023-05-25T13:42:45.020Z,38.70
2023-05-25T13:45:11.865Z,38.70
2023-05-25T13:47:38.740Z,38.60
2023-05-25T13:50:07.027Z,39.20
2023-05-25T13:52:34.126Z,38.00
2023-05-25T13:55:01.114Z,39.40
2023-05-25T13:57:27.872Z,39.70
2023-05-25T13:59:54.687Z,38.60
2023-05-25T14:02:21.476Z,38.80
2023-05-25T14:04:48.257Z,38.60
2023-05-25T14:07:15.018Z,39.30
2023-05-25T14:09:41.778Z,38.70
2023-05-25T14:12:08.694Z,38.40
2023-05-25T14:14:35.471Z,39.20
2023-05-25T14:17:02.297Z,38.50
2023-05-25T14:19:36.547Z,38.50
2023-05-25T14:22:13.457Z,36.80
2023-05-25T14:24:41.764Z,36.30
2023-05-25T14:27:09.044Z,35.60
2023-05-25T14:29:36.115Z,33.80
2023-05-25T14:32:03.180Z,31.20
2023-05-25T14:34:30.112Z,30.40
2023-05-25T14:36:56.982Z,29.60
2023-05-25T14:39:23.897Z,28.10
2023-05-25T14:41:50.804Z,27.80
2023-05-25T14:44:17.651Z,27.20
2023-05-25T14:46:44.527Z,25.70
2023-05-25T14:49:13.472Z,24.50
2023-05-25T14:51:40.292Z,24.50
2023-05-25T14:54:07.662Z,25.20
2023-05-25T14:56:34.836Z,24.10
2023-05-25T14:59:01.563Z,24.20
2023-05-25T15:01:29.301Z,24.60
2023-05-25T15:03:56.425Z,24.40
2023-05-25T15:06:23.270Z,24.00
2023-05-25T15:08:49.899Z,23.60
2023-05-25T15:11:16.668Z,24.30
2023-05-25T15:13:43.395Z,24.20
2023-05-25T15:16:13.983Z,23.40
2023-05-25T15:18:41.120Z,24.00
2023-05-25T15:21:08.007Z,23.90
2023-05-25T15:23:35.036Z,24.60
2023-05-25T15:26:07.475Z,24.10
2023-05-25T15:28:34.650Z,24.90
2023-05-25T15:31:03.417Z,25.80
2023-05-25T15:33:47.225Z,26.30
2023-05-25T15:36:17.913Z,27.70
2023-05-25T15:38:48.583Z,29.10
2023-05-25T15:41:16.816Z,30.20
2023-05-25T15:43:52.490Z,31.80
2023-05-25T15:46:19.493Z,33.70
2023-05-25T15:48:47.247Z,34.60
2023-05-25T15:51:14.026Z,35.90
2023-05-25T15:53:40.801Z,36.30
2023-05-25T15:56:07.589Z,35.80
2023-05-25T15:58:34.583Z,35.70
2023-05-25T16:01:01.865Z,36.20
2023-05-25T16:03:29.452Z,36.30
2023-05-25T16:05:57.196Z,37.00
2023-05-25T16:08:24.187Z,38.30
2023-05-25T16:10:51.007Z,36.90
2023-05-25T16:13:17.765Z,37.10
2023-05-25T16:15:44.896Z,37.50
2023-05-25T16:18:11.945Z,37.90
2023-05-25T16:20:38.789Z,37.50
2023-05-25T16:23:06.418Z,38.80
2023-05-25T16:25:33.164Z,39.30
2023-05-25T16:27:59.931Z,39.60
2023-05-25T16:30:26.672Z,40.20
2023-05-25T16:32:53.433Z,41.00
2023-05-25T16:35:20.365Z,41.70
2023-05-25T16:37:47.111Z,42.30
2023-05-25T16:40:14.004Z,42.30
2023-05-25T16:42:40.782Z,42.90
2023-05-25T16:45:08.209Z,42.10
2023-05-25T16:47:35.062Z,42.30
2023-05-25T16:50:01.908Z,42.40
2023-05-25T16:52:28.657Z,43.10
2023-05-25T16:54:56.243Z,43.20
2023-05-25T16:57:22.996Z,43.70
2023-05-25T16:59:51.676Z,44.70
2023-05-25T17:02:19.805Z,44.70
2023-05-25T17:04:46.563Z,44.80
2023-05-25T17:07:13.428Z,44.80
2023-05-25T17:09:40.708Z,45.10
2023-05-25T17:12:07.937Z,45.40
2023-05-25T17:14:34.764Z,45.20
2023-05-25T17:17:01.574Z,45.20
2023-05-25T17:19:28.358Z,45.10
2023-05-25T17:21:55.165Z,45.50
2023-05-25T17:24:21.979Z,45.70
2023-05-25T17:26:50.084Z,46.60
2023-05-25T17:29:17.472Z,46.50
2023-05-25T17:31:45.680Z,46.80
2023-05-25T17:34:14.547Z,47.20
2023-05-25T17:36:42.100Z,46.90
2023-05-25T17:39:09.384Z,47.20
2023-05-25T17:41:36.170Z,47.40
2023-05-25T17:44:03.021Z,47.60
2023-05-25T17:46:29.984Z,47.90
2023-05-25T17:48:56.945Z,48.10
2023-05-25T17:51:23.708Z,48.50
2023-05-25T17:53:50.549Z,48.70
2023-05-25T17:56:17.347Z,49.00
2023-05-25T17:58:47.246Z,49.40
2023-05-25T18:01:15.321Z,49.90
2023-05-25T18:03:42.524Z,49.80
2023-05-25T18:06:09.374Z,50.00
2023-05-25T18:08:36.165Z,50.20
2023-05-25T18:11:03.181Z,50.60
2023-05-25T18:13:29.996Z,50.70
2023-05-25T18:15:56.849Z,50.50
2023-05-25T18:18:24.754Z,50.70
2023-05-25T18:20:51.689Z,50.90
2023-05-25T18:23:18.647Z,51.10
2023-05-25T18:25:45.788Z,51.30
2023-05-25T18:28:14.828Z,51.30
2023-05-25T18:30:42.813Z,51.20
2023-05-25T18:33:10.584Z,51.50
2023-05-25T18:35:38.230Z,51.50
2023-05-25T18:38:06.454Z,51.60
2023-05-25T18:40:33.309Z,52.10
2023-05-25T18:43:00.131Z,52.50
2023-05-25T18:45:26.970Z,52.60
2023-05-25T18:47:54.158Z,52.80
2023-05-25T18:50:21.305Z,53.10
2023-05-25T18:52:50.944Z,53.10
2023-05-25T18:55:18.885Z,53.00
2023-05-25T18:57:45.833Z,53.10
2023-05-25T19:00:13.626Z,53.50
2023-05-25T19:02:41.059Z,53.40
2023-05-25T19:05:11.283Z,53.30
2023-05-25T19:07:54.675Z,53.50
2023-05-25T19:10:25.253Z,53.80
2023-05-25T19:12:52.106Z,53.80
2023-05-25T19:15:18.919Z,53.90
2023-05-25T19:17:46.562Z,54.20
2023-05-25T19:20:13.908Z,54.30
2023-05-25T19:22:41.730Z,55.00
2023-05-25T19:25:08.773Z,55.10
2023-05-25T19:27:35.600Z,55.80
2023-05-25T19:30:02.473Z,55.20
2023-05-25T19:32:29.351Z,55.70
2023-05-25T19:34:56.318Z,55.90
2023-05-25T19:37:23.274Z,55.80
2023-05-25T19:39:50.052Z,56.00
2023-05-25T19:42:16.926Z,56.30
2023-05-25T19:44:45.218Z,56.50
2023-05-25T19:47:12.153Z,56.60
2023-05-25T19:49:38.918Z,57.00
2023-05-25T19:52:06.008Z,57.20
2023-05-25T19:54:32.868Z,57.50
2023-05-25T19:57:00.058Z,57.60
2023-05-25T19:59:31.027Z,58.20
2023-05-25T20:01:57.886Z,58.00
2023-05-25T20:04:25.047Z,58.20
2023-05-25T20:06:52.139Z,58.50
2023-05-25T20:09:19.011Z,58.60
2023-05-25T20:11:45.773Z,58.70
2023-05-25T20:14:12.619Z,58.90
2023-05-25T20:16:39.459Z,59.20
2023-05-25T20:19:07.503Z,59.20
2023-05-25T20:21:35.619Z,59.50
2023-05-25T20:24:03.346Z,59.80
2023-05-25T20:26:30.223Z,60.00
2023-05-25T20:28:57.337Z,59.90
2023-05-25T20:31:27.210Z,59.90
2023-05-25T20:33:54.032Z,59.80
2023-05-25T20:36:20.913Z,59.80
2023-05-25T20:38:49.988Z,59.80
2023-05-25T20:41:16.660Z,59.80
2023-05-25T20:43:43.423Z,60.00
2023-05-25T20:46:10.552Z,60.60
2023-05-25T20:48:40.319Z,60.50
2023-05-25T20:51:07.222Z,60.60
2023-05-25T20:53:34.011Z,60.70
2023-05-25T20:56:02.136Z,61.00
2023-05-25T20:58:28.920Z,61.30
2023-05-25T21:00:55.840Z,61.40
2023-05-25T21:03:22.677Z,62.00
2023-05-25T21:05:49.523Z,62.60
2023-05-25T21:08:16.303Z,63.00
2023-05-25T21:10:43.075Z,63.70
2023-05-25T21:13:09.863Z,64.10
2023-05-25T21:15:36.732Z,64.70
2023-05-25T21:18:05.392Z,65.10
2023-05-25T21:20:32.961Z,65.30
2023-05-25T21:23:00.592Z,66.10
2023-05-25T21:25:27.364Z,66.80
2023-05-25T21:27:56.749Z,67.10
2023-05-25T21:30:24.294Z,67.90
2023-05-25T21:32:51.179Z,68.40
2023-05-25T21:35:18.075Z,68.90
2023-05-25T21:37:45.654Z,69.70
2023-05-25T21:40:12.718Z,70.60
2023-05-25T21:42:39.504Z,71.20
2023-05-25T21:45:06.936Z,71.60
2023-05-25T21:47:33.730Z,71.60
2023-05-25T21:50:00.673Z,71.60
2023-05-25T21:52:27.442Z,71.40
2023-05-25T21:54:54.266Z,71.50
2023-05-25T21:57:21.009Z,71.90
2023-05-25T21:59:47.727Z,72.40
2023-05-25T22:02:14.602Z,72.70
2023-05-25T22:04:41.413Z,73.90
2023-05-25T22:07:08.225Z,75.00
2023-05-25T22:09:35.047Z,75.90
2023-05-25T22:12:02.236Z,76.00
2023-05-25T22:14:29.084Z,77.00
2023-05-25T22:16:55.980Z,78.10
2023-05-25T22:19:22.815Z,79.10
2023-05-25T22:21:49.590Z,80.10
2023-05-25T22:24:16.358Z,81.10
2023-05-25T22:26:43.213Z,82.10
2023-05-25T22:29:11.794Z,83.20
2023-05-25T22:31:39.026Z,84.30
2023-05-25T22:34:05.885Z,85.60
2023-05-25T22:36:32.750Z,86.80
2023-05-25T22:38:59.624Z,87.70
2023-05-25T22:41:26.515Z,88.80
2023-05-25T22:43:53.296Z,89.50
2023-05-25T22:46:20.818Z,90.10
2023-05-25T22:48:47.648Z,90.60
2023-05-25T22:51:14.414Z,91.20
2023-05-25T22:53:41.535Z,91.80
2023-05-25T22:56:08.379Z,92.00
2023-05-25T22:58:35.230Z,92.10
2023-05-25T23:01:02.048Z,92.30
2023-05-25T23:03:29.904Z,92.90
2023-05-25T23:05:56.983Z,93.20
2023-05-25T23:08:23.744Z,93.60
2023-05-25T23:10:50.609Z,93.80
2023-05-25T23:13:19.037Z,94.40
2023-05-25T23:15:47.415Z,94.80
2023-05-25T23:18:14.413Z,95.30
2023-05-25T23:20:41.618Z,95.60
2023-05-25T23:23:08.558Z,96.20
2023-05-25T23:25:36.267Z,96.60
2023-05-25T23:28:03.023Z,96.90
2023-05-25T23:30:29.816Z,97.40
2023-05-25T23:32:56.718Z,97.40
2023-05-25T23:35:23.490Z,97.80
2023-05-25T23:37:51.852Z,98.40
2023-05-25T23:40:18.712Z,98.80
2023-05-25T23:42:45.773Z,99.30
2023-05-25T23:45:13.399Z,99.90
2023-05-25T23:47:40.383Z,99.90
2023-05-25T23:50:07.696Z,99.90
2023-05-25T23:52:34.733Z,99.90
2023-05-25T23:55:01.650Z,99.90
2023-05-25T23:57:28.469Z,99.90
2023-05-25T23:59:55.307Z,99.90
